createdAt,value
2022-08-27T00:02:22.284Z,69.20
2022-08-27T00:04:52.519Z,69.49
2022-08-27T00:07:21.092Z,69.78
2022-08-27T00:09:49.560Z,69.77
2022-08-27T00:12:18.052Z,69.39
2022-08-27T00:14:46.769Z,69.49
2022-08-27T00:17:15.999Z,69.57
2022-08-27T00:19:45.206Z,69.59
2022-08-27T00:22:15.622Z,69.68
2022-08-27T00:24:48.610Z,69.72
2022-08-27T00:27:17.978Z,70.03
2022-08-27T00:29:46.506Z,69.86
2022-08-27T00:32:15.259Z,69.96
2022-08-27T00:34:43.781Z,70.18
2022-08-27T00:37:12.476Z,70.29
2022-08-27T00:39:42.878Z,70.28
2022-08-27T00:42:11.529Z,70.41
2022-08-27T00:44:40.641Z,70.55
2022-08-27T00:47:14.133Z,70.12
2022-08-27T00:49:46.498Z,70.08
2022-08-27T00:52:20.305Z,70.26
2022-08-27T00:54:51.480Z,70.36
2022-08-27T00:57:20.629Z,70.35
2022-08-27T00:59:49.703Z,70.50
2022-08-27T01:02:21.174Z,70.49
2022-08-27T01:04:53.159Z,70.54
2022-08-27T01:07:23.267Z,70.49
2022-08-27T01:09:54.793Z,70.56
2022-08-27T01:12:23.492Z,70.64
2022-08-27T01:14:53.205Z,70.40
2022-08-27T01:17:21.744Z,70.63
2022-08-27T01:19:54.541Z,70.37
2022-08-27T01:22:31.613Z,70.48
2022-08-27T01:25:06.345Z,70.32
2022-08-27T01:27:35.106Z,70.63
2022-08-27T01:30:04.261Z,70.56
2022-08-27T01:32:34.870Z,70.24
2022-08-27T01:35:05.735Z,70.56
2022-08-27T01:37:34.594Z,70.36
2022-08-27T01:40:06.045Z,70.40
2022-08-27T01:42:38.504Z,70.58
2022-08-27T01:45:10.270Z,70.78
2022-08-27T01:47:39.328Z,70.94
2022-08-27T01:50:12.240Z,71.01
2022-08-27T01:52:40.785Z,70.95
2022-08-27T01:55:14.025Z,70.72
2022-08-27T01:57:43.180Z,70.70
2022-08-27T02:00:16.400Z,70.95
2022-08-27T02:02:45.424Z,70.96
2022-08-27T02:05:14.441Z,71.05
2022-08-27T02:07:43.658Z,71.04
2022-08-27T02:10:19.743Z,70.86
2022-08-27T02:12:53.224Z,71.06
2022-08-27T02:15:22.689Z,70.97
2022-08-27T02:17:51.556Z,70.81
2022-08-27T02:20:20.584Z,71.13
2022-08-27T02:22:49.871Z,71.20
2022-08-27T02:25:21.896Z,71.45
2022-08-27T02:27:51.901Z,71.28
2022-08-27T02:30:24.384Z,71.12
2022-08-27T02:32:53.224Z,71.44
2022-08-27T02:35:23.772Z,71.42
2022-08-27T02:37:53.180Z,71.53
2022-08-27T02:40:24.820Z,71.47
2022-08-27T02:42:53.790Z,71.79
2022-08-27T02:45:23.164Z,71.94
2022-08-27T02:47:51.641Z,71.98
2022-08-27T02:50:20.107Z,72.03
2022-08-27T02:52:48.831Z,72.05
2022-08-27T02:55:17.554Z,72.09
2022-08-27T02:57:48.955Z,72.41
2022-08-27T03:00:21.096Z,72.26
2022-08-27T03:02:49.997Z,72.62
2022-08-27T03:05:19.623Z,72.55
2022-08-27T03:07:48.589Z,72.50
2022-08-27T03:10:19.489Z,72.54
2022-08-27T03:12:49.978Z,72.81
2022-08-27T03:15:20.362Z,72.80
2022-08-27T03:18:06.310Z,72.81
2022-08-27T03:20:35.348Z,72.64
2022-08-27T03:23:03.758Z,72.83
2022-08-27T03:25:33.956Z,72.82
2022-08-27T03:28:04.381Z,73.13
2022-08-27T03:30:38.129Z,73.22
2022-08-27T03:33:08.320Z,72.89
2022-08-27T03:35:37.087Z,73.10
2022-08-27T03:38:05.741Z,72.92
2022-08-27T03:40:34.689Z,72.96
2022-08-27T03:43:04.885Z,73.03
2022-08-27T03:45:48.539Z,72.99
2022-08-27T03:48:21.946Z,73.06
2022-08-27T03:50:52.215Z,73.14
2022-08-27T03:53:21.790Z,73.19
2022-08-27T03:55:51.145Z,73.02
2022-08-27T03:58:21.335Z,72.83
2022-08-27T04:00:49.859Z,73.08
2022-08-27T04:03:18.320Z,73.15
2022-08-27T04:05:46.915Z,73.18
2022-08-27T04:08:15.358Z,73.22
2022-08-27T04:10:43.888Z,73.29
2022-08-27T04:13:12.462Z,73.25
2022-08-27T04:15:46.247Z,73.16
2022-08-27T04:18:16.690Z,72.86
2022-08-27T04:20:45.696Z,73.09
2022-08-27T04:23:14.454Z,73.01
2022-08-27T04:25:43.973Z,73.14
2022-08-27T04:28:13.856Z,73.34
2022-08-27T04:30:44.556Z,73.37
2022-08-27T04:33:15.463Z,73.12
2022-08-27T04:35:44.640Z,73.15
2022-08-27T04:38:13.405Z,73.04
2022-08-27T04:40:59.055Z,73.00
2022-08-27T04:45:57.300Z,72.99
2022-08-27T04:48:27.986Z,73.01
2022-08-27T04:50:56.513Z,73.34
2022-08-27T04:53:25.423Z,72.97
2022-08-27T04:55:56.828Z,72.96
2022-08-27T04:58:26.600Z,73.30
2022-08-27T05:00:58.295Z,73.04
2022-08-27T05:03:29.478Z,73.19
2022-08-27T05:06:02.593Z,73.34
2022-08-27T05:08:32.509Z,73.56
2022-08-27T05:11:02.002Z,73.42
2022-08-27T05:13:31.050Z,73.09
2022-08-27T05:16:01.736Z,73.14
2022-08-27T05:18:36.308Z,73.08
2022-08-27T05:21:12.738Z,72.60
2022-08-27T05:23:41.481Z,72.61
2022-08-27T05:26:10.298Z,72.33
2022-08-27T05:28:38.980Z,72.50
2022-08-27T05:31:12.552Z,72.93
2022-08-27T05:33:43.326Z,73.09
2022-08-27T05:36:17.384Z,73.04
2022-08-27T05:38:46.253Z,72.87
2022-08-27T05:41:17.823Z,72.90
2022-08-27T05:43:50.108Z,72.89
2022-08-27T05:46:21.226Z,73.24
2022-08-27T05:48:52.499Z,73.08
2022-08-27T05:51:25.946Z,73.20
2022-08-27T05:53:57.177Z,73.05
2022-08-27T05:56:27.914Z,72.93
2022-08-27T05:59:14.112Z,72.80
2022-08-27T06:01:45.152Z,73.10
2022-08-27T06:04:17.501Z,73.10
2022-08-27T06:06:47.527Z,73.13
2022-08-27T06:09:20.076Z,73.15
2022-08-27T06:11:49.033Z,73.13
2022-08-27T06:14:17.762Z,73.38
2022-08-27T06:16:46.177Z,72.93
2022-08-27T06:19:16.708Z,73.30
2022-08-27T06:21:45.563Z,73.06
2022-08-27T06:24:15.000Z,72.98
2022-08-27T06:26:45.473Z,72.96
2022-08-27T06:29:15.013Z,73.09
2022-08-27T06:31:44.292Z,73.16
2022-08-27T06:34:13.005Z,73.20
2022-08-27T06:36:43.905Z,72.89
2022-08-27T06:39:17.055Z,73.16
2022-08-27T06:41:46.282Z,73.33
2022-08-27T06:44:15.664Z,73.48
2022-08-27T06:46:45.109Z,73.58
2022-08-27T06:49:13.713Z,73.47
2022-08-27T06:51:47.140Z,73.52
2022-08-27T06:54:16.905Z,73.76
2022-08-27T06:56:46.068Z,73.34
2022-08-27T06:59:17.354Z,73.51
2022-08-27T07:01:48.881Z,73.50
2022-08-27T07:04:22.104Z,73.65
2022-08-27T07:06:52.225Z,73.20
2022-08-27T07:09:21.877Z,73.21
2022-08-27T07:11:50.365Z,73.13
2022-08-27T07:14:19.274Z,73.43
2022-08-27T07:16:48.333Z,73.22
2022-08-27T07:19:19.125Z,73.51
2022-08-27T07:21:49.719Z,73.62
2022-08-27T07:24:19.847Z,73.28
2022-08-27T07:26:49.045Z,73.52
2022-08-27T07:29:17.709Z,73.59
2022-08-27T07:31:46.149Z,73.34
2022-08-27T07:34:14.781Z,73.25
2022-08-27T07:36:43.317Z,73.42
2022-08-27T07:39:14.079Z,73.23
2022-08-27T07:42:01.412Z,73.33
2022-08-27T07:44:34.270Z,73.28
2022-08-27T07:47:03.671Z,73.31
2022-08-27T07:49:35.212Z,73.40
2022-08-27T07:52:04.352Z,73.54
2022-08-27T07:54:32.843Z,73.42
2022-08-27T07:57:02.914Z,73.30
2022-08-27T07:59:31.565Z,73.10
2022-08-27T08:02:00.065Z,73.53
2022-08-27T08:04:29.245Z,73.56
2022-08-27T08:06:58.041Z,73.36
2022-08-27T08:09:27.193Z,73.14
2022-08-27T08:11:55.707Z,73.39
2022-08-27T08:14:26.103Z,73.61
2022-08-27T08:16:54.679Z,73.64
2022-08-27T08:19:23.229Z,73.47
2022-08-27T08:21:57.245Z,73.32
2022-08-27T08:24:29.155Z,73.35
2022-08-27T08:26:57.598Z,73.67
2022-08-27T08:29:27.659Z,73.54
2022-08-27T08:31:56.244Z,73.48
2022-08-27T08:34:24.854Z,73.59
2022-08-27T08:36:55.158Z,73.25
2022-08-27T08:39:24.553Z,73.38
2022-08-27T08:41:56.070Z,73.30
2022-08-27T08:44:32.804Z,73.57
2022-08-27T08:47:16.198Z,73.24
2022-08-27T08:49:51.160Z,73.31
2022-08-27T08:52:32.330Z,73.43
2022-08-27T08:55:09.806Z,73.30
2022-08-27T08:57:43.845Z,73.54
2022-08-27T09:00:15.956Z,73.47
2022-08-27T09:02:52.786Z,73.17
2022-08-27T09:05:24.075Z,73.24
2022-08-27T09:08:34.104Z,73.06
2022-08-27T09:11:01.417Z,73.36
2022-08-27T09:13:34.894Z,72.95
2022-08-27T09:16:06.530Z,73.39
2022-08-27T09:18:38.313Z,73.25
2022-08-27T09:21:19.639Z,72.97
2022-08-27T09:24:05.671Z,73.02
2022-08-27T09:26:38.318Z,73.31
2022-08-27T09:29:20.509Z,73.24
2022-08-27T09:32:00.123Z,73.31
2022-08-27T09:34:37.100Z,72.90
2022-08-27T09:37:11.755Z,72.77
2022-08-27T09:39:50.226Z,72.71
2022-08-27T09:42:31.046Z,72.77
2022-08-27T09:45:01.498Z,72.66
2022-08-27T09:47:31.636Z,72.83
2022-08-27T09:50:07.068Z,72.43
2022-08-27T09:52:39.099Z,72.54
2022-08-27T09:55:08.676Z,72.80
2022-08-27T09:57:41.901Z,72.76
2022-08-27T10:00:17.205Z,72.71
2022-08-27T10:02:55.213Z,72.63
2022-08-27T10:05:30.484Z,72.74
2022-08-27T10:08:04.066Z,72.62
2022-08-27T10:10:40.752Z,72.76
2022-08-27T10:13:15.503Z,72.60
2022-08-27T10:15:56.176Z,72.22
2022-08-27T10:18:37.701Z,71.96
2022-08-27T10:21:15.695Z,72.01
2022-08-27T10:23:53.020Z,71.95
2022-08-27T10:26:33.689Z,71.58
2022-08-27T10:29:14.218Z,71.51
2022-08-27T10:32:04.655Z,71.13
2022-08-27T10:34:46.681Z,70.83
2022-08-27T10:37:36.788Z,70.34
2022-08-27T10:40:18.206Z,70.45
2022-08-27T10:42:57.489Z,70.61
2022-08-27T10:45:42.765Z,70.24
2022-08-27T10:48:24.832Z,70.39
2022-08-27T10:51:05.963Z,70.39
2022-08-27T10:53:44.392Z,70.27
2022-08-27T10:56:20.990Z,70.11
2022-08-27T10:59:04.072Z,69.93
2022-08-27T11:01:44.136Z,69.59
2022-08-27T11:04:16.868Z,69.69
2022-08-27T11:06:52.541Z,69.84
2022-08-27T11:09:24.108Z,70.00
2022-08-27T11:12:13.969Z,69.76
2022-08-27T11:14:51.348Z,69.75
2022-08-27T11:17:33.026Z,69.69
2022-08-27T11:20:09.757Z,69.42
2022-08-27T11:22:46.744Z,69.59
2022-08-27T11:25:37.669Z,69.23
2022-08-27T11:28:08.669Z,69.11
2022-08-27T11:30:51.457Z,68.54
2022-08-27T11:33:26.820Z,68.36
2022-08-27T11:36:21.407Z,68.35
2022-08-27T11:38:56.653Z,68.54
2022-08-27T11:41:53.920Z,68.17
2022-08-27T11:44:26.932Z,68.28
2022-08-27T11:46:58.834Z,68.58
2022-08-27T11:49:32.212Z,68.46
2022-08-27T11:52:05.713Z,68.44
2022-08-27T11:54:46.733Z,68.85
2022-08-27T11:57:29.810Z,68.52
2022-08-27T12:00:01.815Z,68.37
2022-08-27T12:02:32.160Z,68.15
2022-08-27T12:05:13.468Z,67.67
2022-08-27T12:07:49.698Z,67.49
2022-08-27T12:10:41.107Z,67.69
2022-08-27T12:13:23.056Z,67.31
2022-08-27T12:16:03.323Z,67.52
2022-08-27T12:18:45.713Z,67.27
2022-08-27T12:21:22.342Z,67.43
2022-08-27T12:24:12.194Z,66.93
2022-08-27T12:26:44.038Z,67.03
2022-08-27T12:29:43.969Z,66.88
2022-08-27T12:32:26.421Z,67.04
2022-08-27T12:35:03.425Z,66.80
2022-08-27T12:37:36.545Z,67.06
2022-08-27T12:40:15.120Z,66.97
2022-08-27T12:42:49.964Z,66.98
2022-08-27T12:45:24.594Z,67.06
2022-08-27T12:47:55.350Z,67.28
2022-08-27T12:50:29.900Z,66.87
2022-08-27T12:53:23.715Z,67.04
2022-08-27T12:56:04.369Z,67.33
2022-08-27T12:58:45.245Z,67.20
2022-08-27T13:01:32.648Z,66.99
2022-08-27T13:04:02.342Z,67.09
2022-08-27T13:06:33.871Z,67.05
2022-08-27T13:09:04.972Z,67.40
2022-08-27T13:11:36.790Z,67.39
2022-08-27T13:14:13.425Z,67.23
2022-08-27T13:16:48.830Z,67.29
2022-08-27T13:19:23.072Z,67.62
2022-08-27T13:21:52.853Z,67.37
2022-08-27T13:24:28.197Z,67.62
2022-08-27T13:26:57.819Z,67.70
2022-08-27T13:29:28.664Z,67.77
2022-08-27T13:31:58.633Z,67.49
2022-08-27T13:34:29.857Z,67.51
2022-08-27T13:37:00.471Z,67.54
2022-08-27T13:39:30.463Z,67.57
2022-08-27T13:42:01.766Z,67.08
2022-08-27T13:44:37.276Z,66.89
2022-08-27T13:47:09.849Z,66.93
2022-08-27T13:49:42.223Z,67.22
2022-08-27T13:52:25.899Z,67.16
2022-08-27T13:55:00.671Z,67.03
2022-08-27T13:57:31.535Z,66.90
2022-08-27T14:00:15.808Z,66.83
2022-08-27T14:02:55.545Z,67.04
2022-08-27T14:05:31.342Z,66.88
2022-08-27T14:08:01.577Z,66.82
2022-08-27T14:10:34.984Z,66.97
2022-08-27T14:13:07.692Z,66.89
2022-08-27T14:15:40.291Z,66.67
2022-08-27T14:18:32.096Z,67.03
2022-08-27T14:21:10.744Z,66.92
2022-08-27T14:23:39.197Z,66.87
2022-08-27T14:26:10.149Z,66.87
2022-08-27T14:28:38.684Z,67.08
2022-08-27T14:31:08.801Z,67.03
2022-08-27T14:33:38.104Z,67.17
2022-08-27T14:36:08.453Z,67.37
2022-08-27T14:38:40.842Z,67.21
2022-08-27T14:41:09.931Z,66.99
2022-08-27T14:43:38.601Z,67.14
2022-08-27T14:46:12.971Z,67.33
2022-08-27T14:48:51.476Z,67.38
2022-08-27T14:51:25.152Z,67.06
2022-08-27T14:53:54.124Z,67.21
2022-08-27T14:56:23.706Z,66.95
2022-08-27T14:58:53.808Z,67.00
2022-08-27T15:01:26.463Z,67.09
2022-08-27T15:03:56.100Z,67.26
2022-08-27T15:06:27.291Z,67.14
2022-08-27T15:08:56.140Z,67.06
2022-08-27T15:11:28.192Z,67.10
2022-08-27T15:13:58.254Z,67.23
2022-08-27T15:16:33.853Z,67.58
2022-08-27T15:19:08.456Z,67.59
2022-08-27T15:21:49.923Z,67.60
2022-08-27T15:24:29.668Z,67.88
2022-08-27T15:27:05.399Z,67.86
2022-08-27T15:29:38.651Z,67.81
2022-08-27T15:32:18.031Z,67.89
2022-08-27T15:34:49.558Z,67.98
2022-08-27T15:37:18.059Z,67.77
2022-08-27T15:39:46.568Z,68.05
2022-08-27T15:42:15.501Z,67.74
2022-08-27T15:44:47.066Z,67.83
2022-08-27T15:47:19.712Z,67.74
2022-08-27T15:49:48.609Z,67.60
2022-08-27T15:52:19.448Z,67.30
2022-08-27T15:54:50.655Z,67.22
2022-08-27T15:57:20.497Z,67.15
2022-08-27T15:59:49.856Z,67.15
2022-08-27T16:02:22.064Z,67.08
2022-08-27T16:04:51.228Z,67.13
2022-08-27T16:07:21.464Z,67.26
2022-08-27T16:09:50.588Z,67.18
2022-08-27T16:12:26.999Z,67.21
2022-08-27T16:14:56.849Z,67.34
2022-08-27T16:17:27.856Z,67.11
2022-08-27T16:19:56.883Z,67.14
2022-08-27T16:22:26.394Z,67.44
2022-08-27T16:24:55.203Z,67.71
2022-08-27T16:27:26.562Z,67.51
2022-08-27T16:29:58.237Z,67.63
2022-08-27T16:32:30.119Z,67.47
2022-08-27T16:35:00.758Z,67.59
2022-08-27T16:37:29.233Z,67.89
2022-08-27T16:39:58.506Z,68.06
2022-08-27T16:42:27.048Z,68.12
2022-08-27T16:44:55.644Z,68.22
2022-08-27T16:47:24.082Z,67.74
2022-08-27T16:50:11.833Z,67.93
2022-08-27T16:52:52.899Z,68.55
2022-08-27T16:55:21.668Z,68.49
2022-08-27T16:57:51.145Z,68.54
2022-08-27T17:00:20.774Z,68.42
2022-08-27T17:02:49.278Z,68.36
2022-08-27T17:05:35.474Z,68.45
2022-08-27T17:08:05.609Z,68.78
2022-08-27T17:10:41.332Z,68.92
2022-08-27T17:13:10.713Z,68.70
2022-08-27T17:15:39.760Z,68.86
2022-08-27T17:18:08.588Z,69.01
2022-08-27T17:20:38.930Z,69.08
2022-08-27T17:23:09.593Z,68.93
2022-08-27T17:25:38.276Z,69.13
2022-08-27T17:28:07.806Z,69.22
2022-08-27T17:30:36.680Z,68.87
2022-08-27T17:33:05.410Z,69.33
2022-08-27T17:35:34.638Z,68.98
2022-08-27T17:38:05.445Z,68.83
2022-08-27T17:40:34.229Z,68.94
2022-08-27T17:43:03.162Z,68.89
2022-08-27T17:45:31.851Z,68.92
2022-08-27T17:48:00.738Z,68.81
2022-08-27T17:50:41.076Z,68.87
2022-08-27T17:53:11.477Z,68.78
2022-08-27T17:55:40.114Z,68.85
2022-08-27T17:58:09.988Z,68.59
2022-08-27T18:00:40.909Z,68.50
2022-08-27T18:03:18.000Z,68.48
2022-08-27T18:05:48.519Z,68.72
2022-08-27T18:08:20.558Z,68.48
2022-08-27T18:10:49.778Z,68.57
2022-08-27T18:13:20.602Z,68.58
2022-08-27T18:15:50.848Z,68.42
2022-08-27T18:18:19.858Z,68.42
2022-08-27T18:20:49.158Z,68.18
2022-08-27T18:23:23.012Z,68.20
2022-08-27T18:25:52.158Z,68.41
2022-08-27T18:28:22.420Z,68.43
2022-08-27T18:30:51.714Z,68.56
2022-08-27T18:33:20.370Z,68.39
2022-08-27T18:35:50.175Z,68.49
2022-08-27T18:38:21.870Z,68.34
2022-08-27T18:40:55.239Z,68.45
2022-08-27T18:43:29.745Z,68.32
2022-08-27T18:45:58.656Z,68.71
2022-08-27T18:48:27.509Z,68.71
2022-08-27T18:50:59.023Z,68.71
2022-08-27T18:53:32.460Z,68.47
2022-08-27T18:56:02.059Z,69.13
2022-08-27T18:58:31.764Z,69.06
2022-08-27T19:01:03.904Z,69.31
2022-08-27T19:03:35.247Z,69.18
2022-08-27T19:06:08.740Z,69.59
2022-08-27T19:08:40.744Z,69.37
2022-08-27T19:11:10.679Z,69.37
2022-08-27T19:13:39.934Z,69.20
2022-08-27T19:16:13.943Z,69.51
2022-08-27T19:18:43.441Z,69.65
2022-08-27T19:21:12.689Z,69.52
2022-08-27T19:23:43.423Z,69.74
2022-08-27T19:26:17.291Z,69.83
2022-08-27T19:28:46.832Z,69.65
2022-08-27T19:31:16.126Z,70.07
2022-08-27T19:33:47.258Z,69.99
2022-08-27T19:36:20.680Z,70.11
2022-08-27T19:38:52.861Z,69.83
2022-08-27T19:41:27.195Z,70.24
2022-08-27T19:46:57.984Z,70.25
2022-08-27T19:49:27.101Z,69.74
2022-08-27T19:51:56.094Z,69.97
2022-08-27T19:54:26.501Z,69.81
2022-08-27T19:57:02.602Z,70.07
2022-08-27T19:59:31.419Z,69.88
2022-08-27T20:01:59.843Z,70.12
2022-08-27T20:04:32.930Z,70.05
2022-08-27T20:07:03.801Z,70.10
2022-08-27T20:09:34.403Z,70.14
2022-08-27T20:12:04.127Z,70.07
2022-08-27T20:14:34.189Z,69.82
2022-08-27T20:17:08.171Z,70.14
2022-08-27T20:19:38.781Z,69.98
2022-08-27T20:22:08.807Z,70.12
2022-08-27T20:24:40.197Z,70.04
2022-08-27T20:27:10.128Z,69.96
2022-08-27T20:29:42.237Z,70.08
2022-08-27T20:32:13.584Z,70.06
2022-08-27T20:34:43.746Z,70.00
2022-08-27T20:37:13.972Z,70.12
2022-08-27T20:42:40.119Z,69.86
2022-08-27T20:45:12.424Z,69.77
2022-08-27T20:47:46.967Z,70.23
2022-08-27T20:50:16.918Z,70.06
2022-08-27T20:52:45.861Z,70.05
2022-08-27T20:55:15.829Z,70.26
2022-08-27T20:58:06.702Z,69.90
2022-08-27T21:00:38.283Z,69.81
2022-08-27T21:03:07.925Z,70.27
2022-08-27T21:05:37.414Z,70.39
2022-08-27T21:08:07.787Z,70.25
2022-08-27T21:10:36.978Z,70.53
2022-08-27T21:13:08.890Z,70.71
2022-08-27T21:15:41.057Z,70.68
2022-08-27T21:18:09.808Z,70.67
2022-08-27T21:20:38.586Z,70.30
2022-08-27T21:23:07.658Z,70.59
2022-08-27T21:25:37.246Z,70.73
2022-08-27T21:28:07.632Z,70.55
2022-08-27T21:30:36.257Z,70.59
2022-08-27T21:33:06.638Z,70.60
2022-08-27T21:35:35.120Z,70.50
2022-08-27T21:38:04.005Z,70.47
2022-08-27T21:40:33.254Z,70.67
2022-08-27T21:43:02.380Z,70.47
2022-08-27T21:45:30.906Z,70.56
2022-08-27T21:47:59.325Z,70.61
2022-08-27T21:50:29.741Z,70.49
2022-08-27T21:52:58.297Z,70.73
2022-08-27T21:55:26.941Z,70.52
2022-08-27T21:57:55.449Z,70.55
2022-08-27T22:00:43.934Z,70.84
2022-08-27T22:03:20.052Z,70.62
2022-08-27T22:05:50.625Z,70.67
2022-08-27T22:08:21.002Z,70.58
2022-08-27T22:10:52.692Z,70.75
2022-08-27T22:13:22.789Z,70.91
2022-08-27T22:15:51.465Z,71.24
2022-08-27T22:18:23.091Z,71.27
2022-08-27T22:20:54.544Z,71.09
2022-08-27T22:23:23.359Z,70.89
2022-08-27T22:25:51.945Z,70.83
2022-08-27T22:28:21.025Z,71.03
2022-08-27T22:30:49.486Z,70.70
2022-08-27T22:33:19.286Z,70.70
2022-08-27T22:35:47.713Z,70.59
2022-08-27T22:38:18.274Z,70.61
2022-08-27T22:40:46.778Z,70.70
2022-08-27T22:43:16.215Z,70.75
2022-08-27T22:45:44.759Z,70.36
2022-08-27T22:48:13.623Z,70.75
2022-08-27T22:50:42.423Z,70.68
2022-08-27T22:53:12.221Z,70.74
2022-08-27T22:55:43.907Z,70.46
2022-08-27T22:58:15.674Z,70.49
2022-08-27T23:00:52.237Z,70.37
2022-08-27T23:03:21.350Z,70.25
2022-08-27T23:05:50.060Z,70.43
2022-08-27T23:08:18.904Z,70.14
2022-08-27T23:10:48.762Z,70.21
2022-08-27T23:13:17.649Z,69.86
2022-08-27T23:15:46.113Z,70.03
2022-08-27T23:18:14.932Z,69.69
2022-08-27T23:20:43.597Z,69.71
2022-08-27T23:23:12.153Z,69.65
2022-08-27T23:25:57.804Z,69.64
2022-08-27T23:28:27.766Z,69.38
2022-08-27T23:30:56.371Z,69.10
2022-08-27T23:33:25.371Z,69.14
2022-08-27T23:35:53.873Z,69.21
2022-08-27T23:38:23.513Z,69.24
2022-08-27T23:40:52.474Z,69.03
2022-08-27T23:43:22.434Z,68.81
2022-08-27T23:45:52.650Z,68.98
2022-08-27T23:48:21.925Z,69.01
2022-08-27T23:50:50.711Z,68.76
2022-08-27T23:53:19.196Z,68.95
2022-08-27T23:55:47.704Z,69.05
2022-08-27T23:58:16.201Z,69.12
